sensor_id;sensor_type;location;lat;lon;timestamp;pressure;altitude;pressure_sealevel;temperature;humidity
33414;BME280;60055;41.884;12.534;2023-05-08T00:00:07;101191.09;;;21.10;55.48
33414;BME280;60055;41.884;12.534;2023-05-08T00:02:32;101198.41;;;21.08;55.88
33414;BME280;60055;41.884;12.534;2023-05-08T00:04:58;101192.47;;;21.03;56.02
33414;BME280;60055;41.884;12.534;2023-05-08T00:07:23;101180.13;;;21.01;56.20
33414;BME280;60055;41.884;12.534;2023-05-08T00:09:48;101173.69;;;21.03;55.73
33414;BME280;60055;41.884;12.534;2023-05-08T00:12:14;101179.81;;;21.05;56.35
33414;BME280;60055;41.884;12.534;2023-05-08T00:14:39;101177.69;;;20.98;56.59
33414;BME280;60055;41.884;12.534;2023-05-08T00:17:05;101181.47;;;20.95;57.09
33414;BME280;60055;41.884;12.534;2023-05-08T00:19:30;101173.41;;;20.95;57.25
33414;BME280;60055;41.884;12.534;2023-05-08T00:21:56;101167.81;;;20.98;57.09
33414;BME280;60055;41.884;12.534;2023-05-08T00:24:21;101168.31;;;21.03;57.08
33414;BME280;60055;41.884;12.534;2023-05-08T00:26:46;101174.66;;;21.02;57.42
33414;BME280;60055;41.884;12.534;2023-05-08T00:29:12;101168.31;;;21.03;57.75
33414;BME280;60055;41.884;12.534;2023-05-08T00:31:37;101158.88;;;20.98;57.59
33414;BME280;60055;41.884;12.534;2023-05-08T00:34:03;101160.06;;;20.94;57.92
33414;BME280;60055;41.884;12.534;2023-05-08T00:36:28;101153.09;;;20.91;58.38
33414;BME280;60055;41.884;12.534;2023-05-08T00:38:54;101146.75;;;20.92;58.41
33414;BME280;60055;41.884;12.534;2023-05-08T00:41:19;101149.78;;;20.87;58.90
33414;BME280;60055;41.884;12.534;2023-05-08T00:43:44;101141.19;;;20.95;58.75
33414;BME280;60055;41.884;12.534;2023-05-08T00:46:10;101137.09;;;20.89;58.59
33414;BME280;60055;41.884;12.534;2023-05-08T00:48:36;101145.91;;;20.92;58.61
33414;BME280;60055;41.884;12.534;2023-05-08T00:51:05;101146.88;;;20.90;58.91
33414;BME280;60055;41.884;12.534;2023-05-08T00:53:35;101149.78;;;20.87;58.83
33414;BME280;60055;41.884;12.534;2023-05-08T00:56:01;101139.91;;;20.88;58.46
33414;BME280;60055;41.884;12.534;2023-05-08T00:58:29;101142.59;;;20.88;58.67
33414;BME280;60055;41.884;12.534;2023-05-08T01:00:56;101146.22;;;20.87;58.77
33414;BME280;60055;41.884;12.534;2023-05-08T01:03:22;101153.88;;;20.80;58.97
33414;BME280;60055;41.884;12.534;2023-05-08T01:05:48;101147.53;;;20.81;58.90
33414;BME280;60055;41.884;12.534;2023-05-08T01:08:14;101152.28;;;20.78;58.93
33414;BME280;60055;41.884;12.534;2023-05-08T01:13:50;101150.00;;;20.72;59.16
33414;BME280;60055;41.884;12.534;2023-05-08T01:16:24;101149.41;;;20.68;59.73
33414;BME280;60055;41.884;12.534;2023-05-08T01:21:51;101146.25;;;20.62;59.93
33414;BME280;60055;41.884;12.534;2023-05-08T01:24:56;101149.16;;;20.59;59.68
33414;BME280;60055;41.884;12.534;2023-05-08T01:32:45;101153.25;;;20.52;60.37
33414;BME280;60055;41.884;12.534;2023-05-08T01:35:37;101152.28;;;20.53;60.22
33414;BME280;60055;41.884;12.534;2023-05-08T01:38:09;101141.13;;;20.33;60.98
33414;BME280;60055;41.884;12.534;2023-05-08T01:41:26;101134.97;;;20.06;60.79
33414;BME280;60055;41.884;12.534;2023-05-08T01:43:49;101128.31;;;19.99;61.01
33414;BME280;60055;41.884;12.534;2023-05-08T01:46:18;101125.13;;;20.07;60.13
33414;BME280;60055;41.884;12.534;2023-05-08T01:48:58;101134.19;;;19.79;59.99
33414;BME280;60055;41.884;12.534;2023-05-08T01:51:26;101131.06;;;19.72;60.28
33414;BME280;60055;41.884;12.534;2023-05-08T01:53:57;101133.81;;;19.71;59.78
33414;BME280;60055;41.884;12.534;2023-05-08T01:56:27;101131.34;;;19.68;60.27
33414;BME280;60055;41.884;12.534;2023-05-08T01:58:55;101117.09;;;19.67;59.89
33414;BME280;60055;41.884;12.534;2023-05-08T02:01:23;101121.13;;;19.60;59.94
33414;BME280;60055;41.884;12.534;2023-05-08T02:03:50;101126.19;;;19.65;59.74
33414;BME280;60055;41.884;12.534;2023-05-08T02:06:19;101124.53;;;19.76;59.11
33414;BME280;60055;41.884;12.534;2023-05-08T02:08:45;101129.03;;;19.88;59.16
33414;BME280;60055;41.884;12.534;2023-05-08T02:11:12;101127.66;;;19.83;59.41
33414;BME280;60055;41.884;12.534;2023-05-08T02:13:39;101134.19;;;19.79;59.12
33414;BME280;60055;41.884;12.534;2023-05-08T02:16:09;101125.28;;;19.78;59.56
33414;BME280;60055;41.884;12.534;2023-05-08T02:18:37;101126.78;;;19.82;59.39
33414;BME280;60055;41.884;12.534;2023-05-08T02:21:05;101128.94;;;19.90;58.93
33414;BME280;60055;41.884;12.534;2023-05-08T02:23:33;101128.22;;;20.01;59.02
33414;BME280;60055;41.884;12.534;2023-05-08T02:26:01;101117.16;;;20.05;58.53
33414;BME280;60055;41.884;12.534;2023-05-08T02:28:29;101116.94;;;20.08;58.81
33414;BME280;60055;41.884;12.534;2023-05-08T02:30:56;101121.25;;;20.11;58.46
33414;BME280;60055;41.884;12.534;2023-05-08T02:33:23;101124.56;;;20.14;58.33
33414;BME280;60055;41.884;12.534;2023-05-08T02:35:52;101117.28;;;20.16;58.42
33414;BME280;60055;41.884;12.534;2023-05-08T02:38:20;101110.41;;;20.12;58.90
33414;BME280;60055;41.884;12.534;2023-05-08T02:40:52;101097.56;;;20.17;58.99
33414;BME280;60055;41.884;12.534;2023-05-08T02:43:20;101102.16;;;20.15;58.99
33414;BME280;60055;41.884;12.534;2023-05-08T02:46:18;101094.88;;;20.17;58.81
33414;BME280;60055;41.884;12.534;2023-05-08T02:48:57;101089.91;;;20.11;58.87
33414;BME280;60055;41.884;12.534;2023-05-08T02:54:23;101070.28;;;19.73;60.39
33414;BME280;60055;41.884;12.534;2023-05-08T02:59:41;101058.50;;;19.75;60.57
33414;BME280;60055;41.884;12.534;2023-05-08T03:02:14;101067.81;;;19.70;60.58
33414;BME280;60055;41.884;12.534;2023-05-08T03:04:46;101077.91;;;19.79;59.90
33414;BME280;60055;41.884;12.534;2023-05-08T03:07:14;101076.59;;;19.84;60.32
33414;BME280;60055;41.884;12.534;2023-05-08T03:09:43;101069.94;;;19.77;60.33
33414;BME280;60055;41.884;12.534;2023-05-08T03:12:16;101056.88;;;19.73;60.39
33414;BME280;60055;41.884;12.534;2023-05-08T03:14:51;101054.78;;;19.51;60.50
33414;BME280;60055;41.884;12.534;2023-05-08T03:17:17;101060.78;;;19.42;60.70
33414;BME280;60055;41.884;12.534;2023-05-08T03:19:47;101041.00;;;19.30;60.89
33414;BME280;60055;41.884;12.534;2023-05-08T03:22:14;101037.16;;;19.34;60.67
33414;BME280;60055;41.884;12.534;2023-05-08T03:24:41;101038.91;;;19.09;61.73
33414;BME280;60055;41.884;12.534;2023-05-08T03:27:08;101047.22;;;19.04;62.02
33414;BME280;60055;41.884;12.534;2023-05-08T03:29:35;101049.63;;;19.09;62.27
33414;BME280;60055;41.884;12.534;2023-05-08T03:32:02;101055.47;;;19.01;62.23
33414;BME280;60055;41.884;12.534;2023-05-08T03:34:29;101035.88;;;18.74;63.16
33414;BME280;60055;41.884;12.534;2023-05-08T03:36:54;101038.19;;;18.93;63.23
33414;BME280;60055;41.884;12.534;2023-05-08T03:39:21;101057.50;;;18.98;62.60
33414;BME280;60055;41.884;12.534;2023-05-08T03:41:46;101044.84;;;19.00;62.61
33414;BME280;60055;41.884;12.534;2023-05-08T03:44:14;101035.66;;;19.04;62.43
33414;BME280;60055;41.884;12.534;2023-05-08T03:46:41;101050.13;;;19.01;62.14
33414;BME280;60055;41.884;12.534;2023-05-08T03:49:07;101047.19;;;18.92;62.57
33414;BME280;60055;41.884;12.534;2023-05-08T03:51:35;101038.72;;;19.12;61.95
33414;BME280;60055;41.884;12.534;2023-05-08T03:54:02;101051.91;;;18.74;63.22
33414;BME280;60055;41.884;12.534;2023-05-08T03:56:28;101057.66;;;18.68;63.22
33414;BME280;60055;41.884;12.534;2023-05-08T04:00:03;101052.13;;;18.71;63.11
33414;BME280;60055;41.884;12.534;2023-05-08T04:02:11;101058.66;;;18.79;62.87
33414;BME280;60055;41.884;12.534;2023-05-08T04:04:43;101046.53;;;18.88;62.18
33414;BME280;60055;41.884;12.534;2023-05-08T04:10:07;101057.25;;;18.88;62.30
33414;BME280;60055;41.884;12.534;2023-05-08T04:15:24;101033.84;;;18.77;63.23
33414;BME280;60055;41.884;12.534;2023-05-08T04:18:13;101032.44;;;18.72;63.44
33414;BME280;60055;41.884;12.534;2023-05-08T04:20:40;101043.81;;;18.75;63.12
33414;BME280;60055;41.884;12.534;2023-05-08T04:23:07;101039.22;;;18.63;63.92
33414;BME280;60055;41.884;12.534;2023-05-08T04:25:35;101048.69;;;18.69;63.56
33414;BME280;60055;41.884;12.534;2023-05-08T04:28:02;101046.84;;;18.69;63.89
33414;BME280;60055;41.884;12.534;2023-05-08T04:30:28;101047.81;;;18.68;63.75
33414;BME280;60055;41.884;12.534;2023-05-08T04:32:55;101040.47;;;18.44;64.59
33414;BME280;60055;41.884;12.534;2023-05-08T04:35:20;101041.94;;;18.35;65.33
33414;BME280;60055;41.884;12.534;2023-05-08T04:37:46;101040.94;;;18.36;65.04
33414;BME280;60055;41.884;12.534;2023-05-08T04:40:12;101040.13;;;18.21;65.34
33414;BME280;60055;41.884;12.534;2023-05-08T04:42:38;101031.03;;;18.38;65.01
33414;BME280;60055;41.884;12.534;2023-05-08T04:45:07;101027.09;;;18.29;65.75
33414;BME280;60055;41.884;12.534;2023-05-08T04:47:33;101036.66;;;18.33;65.10
33414;BME280;60055;41.884;12.534;2023-05-08T04:49:58;101046.78;;;18.43;64.68
33414;BME280;60055;41.884;12.534;2023-05-08T04:52:24;101043.22;;;18.42;64.47
33414;BME280;60055;41.884;12.534;2023-05-08T04:54:49;101046.78;;;18.43;64.31
33414;BME280;60055;41.884;12.534;2023-05-08T04:57:15;101050.22;;;18.30;64.92
33414;BME280;60055;41.884;12.534;2023-05-08T04:59:40;101039.31;;;18.48;64.45
33414;BME280;60055;41.884;12.534;2023-05-08T05:02:07;101038.00;;;18.55;63.97
33414;BME280;60055;41.884;12.534;2023-05-08T05:04:34;101047.84;;;18.54;64.08
33414;BME280;60055;41.884;12.534;2023-05-08T05:07:01;101052.66;;;18.76;63.62
33414;BME280;60055;41.884;12.534;2023-05-08T05:09:27;101057.84;;;18.79;62.98
33414;BME280;60055;41.884;12.534;2023-05-08T05:11:52;101063.47;;;18.74;63.03
33414;BME280;60055;41.884;12.534;2023-05-08T05:14:18;101069.22;;;18.68;62.96
33414;BME280;60055;41.884;12.534;2023-05-08T05:16:43;101075.06;;;18.61;63.98
33414;BME280;60055;41.884;12.534;2023-05-08T05:19:08;101074.25;;;18.73;63.43
33414;BME280;60055;41.884;12.534;2023-05-08T05:21:34;101080.00;;;18.67;63.27
33414;BME280;60055;41.884;12.534;2023-05-08T05:24:02;101080.97;;;18.66;63.28
33414;BME280;60055;41.884;12.534;2023-05-08T05:26:28;101080.94;;;18.80;63.04
33414;BME280;60055;41.884;12.534;2023-05-08T05:28:53;101085.16;;;18.84;62.61
33414;BME280;60055;41.884;12.534;2023-05-08T05:31:18;101082.34;;;18.59;63.22
33414;BME280;60055;41.884;12.534;2023-05-08T05:33:44;101085.22;;;18.82;62.64
33414;BME280;60055;41.884;12.534;2023-05-08T05:36:10;101085.81;;;18.87;62.36
33414;BME280;60055;41.884;12.534;2023-05-08T05:38:36;101088.06;;;18.94;61.87
33414;BME280;60055;41.884;12.534;2023-05-08T05:41:01;101078.28;;;19.07;61.22
33414;BME280;60055;41.884;12.534;2023-05-08T05:43:27;101073.25;;;19.02;61.63
33414;BME280;60055;41.884;12.534;2023-05-08T05:45:52;101071.25;;;19.06;61.54
33414;BME280;60055;41.884;12.534;2023-05-08T05:48:20;101089.84;;;19.07;61.47
33414;BME280;60055;41.884;12.534;2023-05-08T05:50:45;101091.59;;;19.08;61.22
33414;BME280;60055;41.884;12.534;2023-05-08T05:53:11;101087.78;;;19.25;60.72
33414;BME280;60055;41.884;12.534;2023-05-08T05:55:37;101091.97;;;18.75;62.04
33414;BME280;60055;41.884;12.534;2023-05-08T05:58:02;101096.94;;;19.08;61.05
33414;BME280;60055;41.884;12.534;2023-05-08T06:00:28;101097.72;;;18.96;61.54
33414;BME280;60055;41.884;12.534;2023-05-08T06:02:54;101100.31;;;18.98;61.61
33414;BME280;60055;41.884;12.534;2023-05-08T06:05:20;101104.13;;;18.94;61.24
33414;BME280;60055;41.884;12.534;2023-05-08T06:07:47;101105.63;;;19.12;61.50
33414;BME280;60055;41.884;12.534;2023-05-08T06:10:12;101098.97;;;19.31;60.52
33414;BME280;60055;41.884;12.534;2023-05-08T06:12:38;101104.81;;;19.51;59.64
33414;BME280;60055;41.884;12.534;2023-05-08T06:15:03;101100.78;;;19.58;59.08
33414;BME280;60055;41.884;12.534;2023-05-08T06:17:29;101099.84;;;19.59;58.80
33414;BME280;60055;41.884;12.534;2023-05-08T06:19:54;101094.63;;;19.70;58.94
33414;BME280;60055;41.884;12.534;2023-05-08T06:22:21;101094.06;;;19.77;58.61
33414;BME280;60055;41.884;12.534;2023-05-08T06:24:50;101093.03;;;19.80;58.05
33414;BME280;60055;41.884;12.534;2023-05-08T06:27:19;101101.28;;;19.89;57.84
33414;BME280;60055;41.884;12.534;2023-05-08T06:29:46;101098.38;;;19.93;57.62
33414;BME280;60055;41.884;12.534;2023-05-08T06:32:12;101097.41;;;19.81;57.56
33414;BME280;60055;41.884;12.534;2023-05-08T06:34:37;101094.94;;;19.78;57.77
33414;BME280;60055;41.884;12.534;2023-05-08T06:37:03;101094.63;;;19.70;58.16
33414;BME280;60055;41.884;12.534;2023-05-08T06:39:28;101102.03;;;19.92;57.31
33414;BME280;60055;41.884;12.534;2023-05-08T06:41:53;101110.28;;;20.01;57.05
33414;BME280;60055;41.884;12.534;2023-05-08T06:44:19;101102.78;;;19.94;57.44
33414;BME280;60055;41.884;12.534;2023-05-08T06:46:44;101102.03;;;19.92;57.58
33414;BME280;60055;41.884;12.534;2023-05-08T06:49:10;101101.59;;;19.98;57.13
33414;BME280;60055;41.884;12.534;2023-05-08T06:51:35;101110.19;;;20.03;57.52
33414;BME280;60055;41.884;12.534;2023-05-08T06:54:02;101111.16;;;20.02;57.47
33414;BME280;60055;41.884;12.534;2023-05-08T06:56:32;101110.63;;;19.97;57.34
33414;BME280;60055;41.884;12.534;2023-05-08T06:58:57;101101.50;;;19.99;57.30
33414;BME280;60055;41.884;12.534;2023-05-08T07:01:23;101103.66;;;20.07;57.81
33414;BME280;60055;41.884;12.534;2023-05-08T07:03:48;101106.03;;;20.24;57.23
33414;BME280;60055;41.884;12.534;2023-05-08T07:06:13;101110.13;;;20.42;56.55
33414;BME280;60055;41.884;12.534;2023-05-08T07:08:39;101107.84;;;20.49;56.10
33414;BME280;60055;41.884;12.534;2023-05-08T07:11:04;101116.66;;;20.63;55.62
33414;BME280;60055;41.884;12.534;2023-05-08T07:13:30;101108.59;;;20.63;55.84
33414;BME280;60055;41.884;12.534;2023-05-08T07:15:56;101119.09;;;20.66;55.89
33414;BME280;60055;41.884;12.534;2023-05-08T07:18:21;101105.66;;;20.79;55.76
33414;BME280;60055;41.884;12.534;2023-05-08T07:20:47;101103.28;;;20.87;56.07
33414;BME280;60055;41.884;12.534;2023-05-08T07:23:12;101105.88;;;20.88;56.41
33414;BME280;60055;41.884;12.534;2023-05-08T07:25:38;101103.38;;;20.85;57.02
33414;BME280;60055;41.884;12.534;2023-05-08T07:28:03;101110.78;;;20.95;56.84
33414;BME280;60055;41.884;12.534;2023-05-08T07:30:29;101107.00;;;20.97;56.87
33414;BME280;60055;41.884;12.534;2023-05-08T07:32:54;101104.72;;;21.04;56.09
33414;BME280;60055;41.884;12.534;2023-05-08T07:35:20;101109.59;;;20.99;55.61
33414;BME280;60055;41.884;12.534;2023-05-08T07:37:45;101108.16;;;21.06;55.36
33414;BME280;60055;41.884;12.534;2023-05-08T07:40:10;101103.78;;;21.05;54.87
33414;BME280;60055;41.884;12.534;2023-05-08T07:42:43;101102.69;;;21.07;54.58
33414;BME280;60055;41.884;12.534;2023-05-08T07:45:10;101119.25;;;21.01;55.08
33414;BME280;60055;41.884;12.534;2023-05-08T07:47:37;101119.13;;;21.03;55.30
33414;BME280;60055;41.884;12.534;2023-05-08T07:50:03;101121.28;;;20.98;55.76
33414;BME280;60055;41.884;12.534;2023-05-08T07:52:29;101121.81;;;21.03;55.46
33414;BME280;60055;41.884;12.534;2023-05-08T07:54:54;101128.66;;;21.07;55.86
33414;BME280;60055;41.884;12.534;2023-05-08T07:57:20;101129.84;;;21.03;55.39
33414;BME280;60055;41.884;12.534;2023-05-08T07:59:45;101126.16;;;20.80;56.64
33414;BME280;60055;41.884;12.534;2023-05-08T08:02:11;101139.72;;;20.66;56.83
33414;BME280;60055;41.884;12.534;2023-05-08T08:04:36;101137.78;;;20.68;56.95
33414;BME280;60055;41.884;12.534;2023-05-08T08:07:01;101137.75;;;20.80;56.45
33414;BME280;60055;41.884;12.534;2023-05-08T08:09:27;101145.59;;;20.83;56.29
33414;BME280;60055;41.884;12.534;2023-05-08T08:11:52;101149.97;;;20.97;55.94
33414;BME280;60055;41.884;12.534;2023-05-08T08:14:18;101156.72;;;21.03;55.27
33414;BME280;60055;41.884;12.534;2023-05-08T08:16:43;101161.22;;;21.02;55.18
33414;BME280;60055;41.884;12.534;2023-05-08T08:19:09;101160.81;;;21.08;55.60
33414;BME280;60055;41.884;12.534;2023-05-08T08:21:35;101165.63;;;21.03;55.73
33414;BME280;60055;41.884;12.534;2023-05-08T08:24:00;101162.63;;;21.08;55.44
33414;BME280;60055;41.884;12.534;2023-05-08T08:26:26;101171.44;;;21.10;55.96
33414;BME280;60055;41.884;12.534;2023-05-08T08:28:51;101173.59;;;21.05;56.53
33414;BME280;60055;41.884;12.534;2023-05-08T08:31:16;101171.84;;;21.16;56.56
33414;BME280;60055;41.884;12.534;2023-05-08T08:33:44;101178.72;;;21.20;56.56
33414;BME280;60055;41.884;12.534;2023-05-08T08:36:13;101183.22;;;21.32;57.12
33414;BME280;60055;41.884;12.534;2023-05-08T08:38:38;101192.47;;;21.28;57.02
33414;BME280;60055;41.884;12.534;2023-05-08T08:41:04;101185.78;;;21.34;57.39
33414;BME280;60055;41.884;12.534;2023-05-08T08:43:29;101183.22;;;21.32;57.45
33414;BME280;60055;41.884;12.534;2023-05-08T08:45:55;101179.44;;;21.35;57.89
33414;BME280;60055;41.884;12.534;2023-05-08T08:48:26;101183.38;;;21.18;58.03
33414;BME280;60055;41.884;12.534;2023-05-08T08:50:58;101195.25;;;21.27;58.68
33414;BME280;60055;41.884;12.534;2023-05-08T08:53:34;101189.41;;;21.33;58.40
33414;BME280;60055;41.884;12.534;2023-05-08T08:56:00;101191.47;;;21.29;58.64
33414;BME280;60055;41.884;12.534;2023-05-08T09:01:06;101194.53;;;21.25;59.80
33414;BME280;60055;41.884;12.534;2023-05-08T09:03:32;101192.56;;;21.27;59.91
33414;BME280;60055;41.884;12.534;2023-05-08T09:06:00;101202.22;;;21.29;60.80
33414;BME280;60055;41.884;12.534;2023-05-08T09:08:27;101194.94;;;21.31;60.72
33414;BME280;60055;41.884;12.534;2023-05-08T09:10:53;101195.88;;;21.30;60.88
33414;BME280;60055;41.884;12.534;2023-05-08T09:13:20;101193.97;;;21.32;60.83
33414;BME280;60055;41.884;12.534;2023-05-08T09:15:46;101198.81;;;21.27;61.46
33414;BME280;60055;41.884;12.534;2023-05-08T09:18:11;101202.75;;;21.34;60.75
33414;BME280;60055;41.884;12.534;2023-05-08T09:20:39;101205.22;;;21.37;60.97
33414;BME280;60055;41.884;12.534;2023-05-08T09:23:05;101213.00;;;21.17;61.74
33414;BME280;60055;41.884;12.534;2023-05-08T09:25:43;101215.78;;;21.28;60.67
33414;BME280;60055;41.884;12.534;2023-05-08T09:28:25;101219.97;;;21.32;60.49
33414;BME280;60055;41.884;12.534;2023-05-08T09:30:59;101230.94;;;21.16;60.40
33414;BME280;60055;41.884;12.534;2023-05-08T09:33:26;101224.72;;;21.16;60.30
33414;BME280;60055;41.884;12.534;2023-05-08T09:35:53;101233.63;;;21.16;59.73
33414;BME280;60055;41.884;12.534;2023-05-08T09:38:38;101228.78;;;21.21;59.47
33414;BME280;60055;41.884;12.534;2023-05-08T09:43:33;101233.31;;;21.08;60.84
33414;BME280;60055;41.884;12.534;2023-05-08T09:46:21;101243.28;;;21.06;61.18
33414;BME280;60055;41.884;12.534;2023-05-08T09:48:48;101241.47;;;21.07;60.83
33414;BME280;60055;41.884;12.534;2023-05-08T09:51:14;101251.34;;;21.06;61.16
33414;BME280;60055;41.884;12.534;2023-05-08T09:53:40;101246.72;;;20.96;60.93
33414;BME280;60055;41.884;12.534;2023-05-08T09:56:05;101238.34;;;20.50;62.11
33414;BME280;60055;41.884;12.534;2023-05-08T09:58:41;101242.88;;;20.62;61.86
33414;BME280;60055;41.884;12.534;2023-05-08T10:01:08;101236.97;;;20.82;61.43
33414;BME280;60055;41.884;12.534;2023-05-08T10:03:51;101247.28;;;20.88;61.03
33414;BME280;60055;41.884;12.534;2023-05-08T10:06:16;101241.78;;;20.89;61.24
33414;BME280;60055;41.884;12.534;2023-05-08T10:08:42;101242.75;;;21.01;60.51
33414;BME280;60055;41.884;12.534;2023-05-08T10:11:18;101243.22;;;20.95;60.65
33414;BME280;60055;41.884;12.534;2023-05-08T10:13:44;101244.03;;;20.96;60.89
33414;BME280;60055;41.884;12.534;2023-05-08T10:16:14;101250.94;;;20.87;61.16
33414;BME280;60055;41.884;12.534;2023-05-08T10:18:48;101249.75;;;20.91;60.41
33414;BME280;60055;41.884;12.534;2023-05-08T10:21:16;101248.88;;;20.90;60.68
33414;BME280;60055;41.884;12.534;2023-05-08T10:23:42;101254.69;;;20.84;60.47
33414;BME280;60055;41.884;12.534;2023-05-08T10:26:13;101253.53;;;20.88;60.01
33414;BME280;60055;41.884;12.534;2023-05-08T10:29:04;101252.22;;;20.81;60.61
33414;BME280;60055;41.884;12.534;2023-05-08T10:31:34;101253.84;;;20.71;60.87
33414;BME280;60055;41.884;12.534;2023-05-08T10:34:00;101248.69;;;20.68;60.62
33414;BME280;60055;41.884;12.534;2023-05-08T10:36:27;101243.00;;;20.60;60.61
33414;BME280;60055;41.884;12.534;2023-05-08T10:38:53;101244.94;;;20.71;59.63
33414;BME280;60055;41.884;12.534;2023-05-08T10:41:19;101244.38;;;20.53;60.23
33414;BME280;60055;41.884;12.534;2023-05-08T10:43:47;101246.09;;;20.54;60.30
33414;BME280;60055;41.884;12.534;2023-05-08T10:46:27;101240.00;;;20.65;60.16
33414;BME280;60055;41.884;12.534;2023-05-08T10:52:20;101234.72;;;20.51;59.94
33414;BME280;60055;41.884;12.534;2023-05-08T10:57:28;101237.94;;;20.56;59.39
33414;BME280;60055;41.884;12.534;2023-05-08T10:59:54;101234.63;;;20.65;59.13
33414;BME280;60055;41.884;12.534;2023-05-08T11:02:27;101227.97;;;20.70;58.35
33414;BME280;60055;41.884;12.534;2023-05-08T11:05:15;101222.38;;;20.61;58.10
33414;BME280;60055;41.884;12.534;2023-05-08T11:07:59;101227.53;;;20.76;57.96
33414;BME280;60055;41.884;12.534;2023-05-08T11:10:28;101216.56;;;20.67;58.54
33414;BME280;60055;41.884;12.534;2023-05-08T11:12:54;101224.72;;;20.53;58.76
33414;BME280;60055;41.884;12.534;2023-05-08T11:15:38;101228.50;;;20.63;58.65
33414;BME280;60055;41.884;12.534;2023-05-08T11:18:10;101223.88;;;20.65;58.79
33414;BME280;60055;41.884;12.534;2023-05-08T11:20:40;101217.88;;;20.74;58.63
33414;BME280;60055;41.884;12.534;2023-05-08T11:28:24;101217.88;;;20.74;58.68
33414;BME280;60055;41.884;12.534;2023-05-08T11:30:52;101216.69;;;20.78;58.14
33414;BME280;60055;41.884;12.534;2023-05-08T11:33:19;101206.81;;;20.78;57.94
33414;BME280;60055;41.884;12.534;2023-05-08T11:36:00;101207.13;;;20.74;58.01
33414;BME280;60055;41.884;12.534;2023-05-08T11:38:36;101194.25;;;20.66;58.36
33414;BME280;60055;41.884;12.534;2023-05-08T11:43:57;101190.13;;;20.23;61.37
33414;BME280;60055;41.884;12.534;2023-05-08T11:46:48;101186.44;;;20.51;60.88
33414;BME280;60055;41.884;12.534;2023-05-08T11:49:19;101189.09;;;20.51;60.27
33414;BME280;60055;41.884;12.534;2023-05-08T11:51:47;101186.94;;;20.56;60.40
33414;BME280;60055;41.884;12.534;2023-05-08T11:54:18;101176.44;;;20.53;60.54
33414;BME280;60055;41.884;12.534;2023-05-08T11:56:50;101176.66;;;20.50;60.73
33414;BME280;60055;41.884;12.534;2023-05-08T11:59:16;101171.94;;;20.53;61.47
33414;BME280;60055;41.884;12.534;2023-05-08T12:01:42;101165.91;;;20.50;60.89
33414;BME280;60055;41.884;12.534;2023-05-08T12:04:10;101170.19;;;20.52;61.33
33414;BME280;60055;41.884;12.534;2023-05-08T12:06:37;101171.06;;;20.53;61.85
33414;BME280;60055;41.884;12.534;2023-05-08T12:09:09;101173.75;;;20.53;62.56
33414;BME280;60055;41.884;12.534;2023-05-08T12:11:35;101172.78;;;20.54;62.20
33414;BME280;60055;41.884;12.534;2023-05-08T12:14:01;101172.25;;;20.49;62.06
33414;BME280;60055;41.884;12.534;2023-05-08T12:16:26;101174.84;;;20.50;62.64
33414;BME280;60055;41.884;12.534;2023-05-08T12:18:52;101172.69;;;20.43;62.92
33414;BME280;60055;41.884;12.534;2023-05-08T12:21:20;101171.81;;;20.42;62.84
33414;BME280;60055;41.884;12.534;2023-05-08T12:23:46;101185.13;;;20.44;62.74
33414;BME280;60055;41.884;12.534;2023-05-08T12:26:11;101178.16;;;20.41;63.38
33414;BME280;60055;41.884;12.534;2023-05-08T12:28:37;101181.38;;;20.46;63.30
33414;BME280;60055;41.884;12.534;2023-05-08T12:31:03;101174.63;;;20.41;63.37
33414;BME280;60055;41.884;12.534;2023-05-08T12:33:29;101170.84;;;20.43;63.38
33414;BME280;60055;41.884;12.534;2023-05-08T12:35:55;101174.94;;;20.49;63.13
33414;BME280;60055;41.884;12.534;2023-05-08T12:38:27;101172.16;;;20.50;63.24
33414;BME280;60055;41.884;12.534;2023-05-08T12:40:53;101168.09;;;20.45;64.03
33414;BME280;60055;41.884;12.534;2023-05-08T12:43:20;101172.59;;;20.44;63.91
33414;BME280;60055;41.884;12.534;2023-05-08T12:45:49;101165.41;;;20.45;64.21
33414;BME280;60055;41.884;12.534;2023-05-08T12:48:16;101175.78;;;20.49;64.40
33414;BME280;60055;41.884;12.534;2023-05-08T12:50:44;101175.06;;;20.47;64.46
33414;BME280;60055;41.884;12.534;2023-05-08T12:53:11;101170.19;;;20.52;64.37
33414;BME280;60055;41.884;12.534;2023-05-08T12:55:39;101173.75;;;20.53;64.66
33414;BME280;60055;41.884;12.534;2023-05-08T12:58:09;101165.69;;;20.53;64.45
33414;BME280;60055;41.884;12.534;2023-05-08T13:03:06;101158.19;;;20.58;64.54
33414;BME280;60055;41.884;12.534;2023-05-08T13:05:37;101147.22;;;20.48;65.03
33414;BME280;60055;41.884;12.534;2023-05-08T13:08:06;101144.03;;;20.30;65.93
33414;BME280;60055;41.884;12.534;2023-05-08T13:13:13;101138.25;;;20.36;66.21
33414;BME280;60055;41.884;12.534;2023-05-08T13:15:39;101138.53;;;20.19;65.75
33414;BME280;60055;41.884;12.534;2023-05-08T13:18:05;101128.66;;;20.07;66.60
33414;BME280;60055;41.884;12.534;2023-05-08T13:20:32;101122.13;;;20.24;66.24
33414;BME280;60055;41.884;12.534;2023-05-08T13:22:58;101127.72;;;20.33;65.81
33414;BME280;60055;41.884;12.534;2023-05-08T13:25:23;101117.75;;;20.35;65.88
33414;BME280;60055;41.884;12.534;2023-05-08T13:27:48;101110.63;;;20.22;66.25
33414;BME280;60055;41.884;12.534;2023-05-08T13:30:14;101116.75;;;20.24;66.03
33414;BME280;60055;41.884;12.534;2023-05-08T13:32:40;101114.59;;;20.16;66.32